Time;durP1;ratioP1;P1;durP2;ratioP2;P2;SDS_P1;SDS_P2;PMS_P1;PMS_P2;Temp;Humidity;BMP_temperature;BMP_pressure;BME280_temperature;BME280_humidity;BME280_pressure;Samples;Min_cycle;Max_cycle;Signal;HPM_P1;HPM_P2
2022/05/22 00:02:11;;;;;;;67.75;15.73;;;;;;;;;;5032236;28;20025;-54
2022/05/22 00:04:38;;;;;;;80.63;16.83;;;;;;;;;;5033178;28;20037;-57
2022/05/22 00:07:06;;;;;;;68.35;15.38;;;;;;;;;;5029264;28;20422;-57
2022/05/22 00:09:34;;;;;;;71.00;16.25;;;;;;;;;;5015133;28;20449;-55
2022/05/22 00:12:01;;;;;;;70.82;15.68;;;;;;;;;;5034215;28;20525;-55
2022/05/22 00:14:28;;;;;;;75.10;16.98;;;;;;;;;;5033297;28;20215;-58
2022/05/22 00:16:56;;;;;;;76.57;17.42;;;;;;;;;;5033899;28;20044;-57
2022/05/22 00:19:24;;;;;;;76.43;17.15;;;;;;;;;;5033465;28;20028;-56
2022/05/22 00:21:52;;;;;;;82.80;16.05;;;;;;;;;;5033975;28;20026;-56
2022/05/22 00:24:20;;;;;;;68.97;17.10;;;;;;;;;;5032483;28;20171;-56
2022/05/22 00:26:48;;;;;;;84.22;19.25;;;;;;;;;;5032929;28;20467;-58
2022/05/22 00:29:16;;;;;;;84.38;20.20;;;;;;;;;;5032734;28;20041;-58
2022/05/22 00:31:43;;;;;;;92.65;22.33;;;;;;;;;;5033615;28;20033;-54
2022/05/22 00:34:10;;;;;;;96.70;23.70;;;;;;;;;;5033929;28;20037;-57
2022/05/22 00:36:37;;;;;;;108.63;27.25;;;;;;;;;;5031441;28;20510;-57
2022/05/22 00:39:04;;;;;;;103.63;26.80;;;;;;;;;;5030917;28;20048;-57
2022/05/22 00:41:32;;;;;;;104.90;29.13;;;;;;;;;;5032572;28;20446;-58
2022/05/22 00:44:00;;;;;;;110.60;26.95;;;;;;;;;;5032694;28;20039;-58
2022/05/22 00:46:29;;;;;;;97.00;26.17;;;;;;;;;;5032868;28;20034;-57
2022/05/22 00:49:05;;;;;;;114.03;27.00;;;;;;;;;;5033322;28;20109;-57
2022/05/22 00:51:37;;;;;;;99.75;25.77;;;;;;;;;;5032526;28;20072;-57
2022/05/22 00:54:30;;;;;;;103.38;26.35;;;;;;;;;;5033428;28;20036;-56
2022/05/22 00:57:01;;;;;;;82.78;22.67;;;;;;;;;;5002856;28;20046;-58
2022/05/22 00:59:30;;;;;;;92.85;23.90;;;;;;;;;;5032322;28;20029;-58
2022/05/22 01:01:58;;;;;;;85.63;24.65;;;;;;;;;;5032237;28;20026;-57
2022/05/22 01:04:27;;;;;;;88.30;22.85;;;;;;;;;;5032707;28;20108;-58
2022/05/22 01:06:54;;;;;;;76.30;21.30;;;;;;;;;;5031277;28;20399;-58
2022/05/22 01:09:21;;;;;;;74.65;20.90;;;;;;;;;;5031301;28;20043;-56
2022/05/22 01:11:50;;;;;;;77.28;20.80;;;;;;;;;;5014522;28;20080;-59
2022/05/22 01:14:21;;;;;;;74.00;20.75;;;;;;;;;;5033068;28;20045;-58
2022/05/22 01:16:48;;;;;;;66.00;19.90;;;;;;;;;;5034728;28;20375;-59
2022/05/22 01:19:16;;;;;;;64.55;20.73;;;;;;;;;;5033328;28;20029;-58
2022/05/22 01:22:03;;;;;;;65.00;18.50;;;;;;;;;;5015598;28;20113;-57
2022/05/22 01:24:30;;;;;;;74.90;18.92;;;;;;;;;;5032513;28;20065;-59
2022/05/22 01:26:59;;;;;;;70.05;18.65;;;;;;;;;;5032079;28;20045;-58
2022/05/22 01:29:26;;;;;;;65.60;18.73;;;;;;;;;;5032138;28;20037;-58
2022/05/22 01:31:53;;;;;;;69.30;17.55;;;;;;;;;;5031879;28;20123;-57
2022/05/22 01:34:20;;;;;;;60.95;17.48;;;;;;;;;;5032562;28;20033;-56
2022/05/22 01:36:47;;;;;;;60.88;17.33;;;;;;;;;;5032246;28;20136;-58
2022/05/22 01:39:14;;;;;;;56.28;16.95;;;;;;;;;;5032376;28;20052;-57
2022/05/22 01:41:41;;;;;;;52.75;16.50;;;;;;;;;;5031263;28;20043;-58
2022/05/22 01:44:08;;;;;;;58.17;15.55;;;;;;;;;;5032301;28;20051;-58
2022/05/22 01:46:35;;;;;;;52.42;16.10;;;;;;;;;;5032402;28;20029;-57
2022/05/22 01:49:02;;;;;;;56.35;17.38;;;;;;;;;;5015145;28;20510;-57
2022/05/22 01:51:33;;;;;;;48.97;15.70;;;;;;;;;;5014461;28;20539;-57
2022/05/22 01:54:01;;;;;;;50.38;14.80;;;;;;;;;;5033030;28;20026;-55
2022/05/22 01:56:32;;;;;;;48.42;15.02;;;;;;;;;;5032392;28;20037;-56
2022/05/22 01:58:59;;;;;;;57.67;14.77;;;;;;;;;;5033143;28;20428;-56
2022/05/22 02:01:26;;;;;;;45.53;14.70;;;;;;;;;;5031779;28;20036;-57
2022/05/22 02:03:54;;;;;;;48.17;13.93;;;;;;;;;;5032818;28;20036;-56
2022/05/22 02:06:21;;;;;;;49.55;13.88;;;;;;;;;;5032258;28;20601;-57
2022/05/22 02:08:48;;;;;;;42.67;14.25;;;;;;;;;;5032470;28;20073;-56
2022/05/22 02:11:15;;;;;;;38.42;12.85;;;;;;;;;;5032391;28;20032;-56
2022/05/22 02:13:44;;;;;;;36.50;12.05;;;;;;;;;;5032332;28;20109;-54
2022/05/22 02:16:11;;;;;;;40.70;12.77;;;;;;;;;;5032443;28;20178;-57
2022/05/22 02:18:38;;;;;;;42.05;12.73;;;;;;;;;;5031985;28;20159;-57
2022/05/22 02:21:05;;;;;;;40.92;12.60;;;;;;;;;;5032150;28;20487;-57
2022/05/22 02:23:34;;;;;;;45.97;13.35;;;;;;;;;;5033299;28;20033;-57
2022/05/22 02:26:01;;;;;;;45.42;12.40;;;;;;;;;;5014887;28;20034;-55
2022/05/22 02:28:28;;;;;;;41.88;12.15;;;;;;;;;;5031679;28;20025;-57
2022/05/22 02:30:57;;;;;;;37.90;11.38;;;;;;;;;;5033134;28;20025;-58
2022/05/22 02:33:24;;;;;;;37.00;12.02;;;;;;;;;;5014906;28;20049;-57
2022/05/22 02:35:51;;;;;;;35.20;11.82;;;;;;;;;;5032506;28;20499;-57
2022/05/22 02:38:19;;;;;;;41.22;11.85;;;;;;;;;;5031941;28;20096;-57
2022/05/22 02:40:46;;;;;;;41.13;11.15;;;;;;;;;;5031592;28;20026;-55
2022/05/22 02:43:13;;;;;;;38.88;10.90;;;;;;;;;;5031405;28;20026;-57
2022/05/22 02:45:40;;;;;;;37.40;11.02;;;;;;;;;;5031039;28;20025;-57
2022/05/22 02:48:08;;;;;;;34.08;11.20;;;;;;;;;;5028775;28;20033;-56
2022/05/22 02:50:35;;;;;;;26.63;9.93;;;;;;;;;;5032045;28;20032;-56
2022/05/22 02:53:02;;;;;;;32.80;10.60;;;;;;;;;;5031403;28;20025;-58
2022/05/22 02:55:29;;;;;;;31.48;10.02;;;;;;;;;;5031780;28;20084;-58
2022/05/22 02:57:56;;;;;;;32.60;9.55;;;;;;;;;;5031346;28;20037;-57
2022/05/22 03:00:24;;;;;;;33.08;10.48;;;;;;;;;;5031468;28;20567;-58
2022/05/22 03:02:51;;;;;;;29.98;10.13;;;;;;;;;;5031672;28;20380;-57
2022/05/22 03:05:19;;;;;;;33.20;8.82;;;;;;;;;;5033551;28;20064;-56
2022/05/22 03:07:46;;;;;;;37.53;9.50;;;;;;;;;;5033434;28;20581;-57
2022/05/22 03:10:14;;;;;;;33.17;9.88;;;;;;;;;;5035601;28;20116;-57
2022/05/22 03:12:41;;;;;;;37.35;10.00;;;;;;;;;;5034886;28;20056;-56
2022/05/22 03:15:10;;;;;;;22.58;8.38;;;;;;;;;;5035767;28;20047;-58
2022/05/22 03:17:37;;;;;;;33.92;9.27;;;;;;;;;;5034788;28;20026;-57
2022/05/22 03:20:04;;;;;;;30.23;8.60;;;;;;;;;;5035566;28;20029;-57
2022/05/22 03:22:32;;;;;;;32.53;9.50;;;;;;;;;;5034635;28;20036;-57
2022/05/22 03:24:59;;;;;;;26.15;8.50;;;;;;;;;;5034969;28;20037;-57
2022/05/22 03:27:26;;;;;;;29.27;9.05;;;;;;;;;;5035176;28;20159;-57
2022/05/22 03:29:53;;;;;;;22.23;8.00;;;;;;;;;;5034714;28;20018;-57
2022/05/22 03:32:20;;;;;;;29.35;8.55;;;;;;;;;;5035383;28;20403;-57
2022/05/22 03:34:48;;;;;;;27.17;8.65;;;;;;;;;;5034641;28;20038;-58
2022/05/22 03:37:15;;;;;;;23.38;7.93;;;;;;;;;;5035121;28;20034;-53
2022/05/22 03:39:42;;;;;;;26.70;7.43;;;;;;;;;;5034822;28;20108;-56
2022/05/22 03:42:10;;;;;;;28.52;8.90;;;;;;;;;;5034234;28;20029;-56
2022/05/22 03:44:37;;;;;;;23.95;8.02;;;;;;;;;;5035226;28;20029;-57
2022/05/22 03:47:04;;;;;;;23.50;7.35;;;;;;;;;;5034971;28;20466;-57
2022/05/22 03:49:31;;;;;;;25.17;8.02;;;;;;;;;;5026164;28;20037;-57
2022/05/22 03:51:58;;;;;;;19.85;7.40;;;;;;;;;;5028991;28;20029;-56
2022/05/22 03:54:25;;;;;;;23.45;7.93;;;;;;;;;;5032107;28;20030;-58
2022/05/22 03:56:54;;;;;;;23.27;7.30;;;;;;;;;;5030716;28;20083;-57
2022/05/22 03:59:21;;;;;;;21.90;7.30;;;;;;;;;;5024948;28;20395;-55
2022/05/22 04:01:48;;;;;;;21.98;7.18;;;;;;;;;;5028903;28;20032;-58
2022/05/22 04:04:15;;;;;;;25.20;7.15;;;;;;;;;;5032435;28;20037;-56
2022/05/22 04:06:42;;;;;;;26.17;7.43;;;;;;;;;;5033561;28;20039;-56
2022/05/22 04:09:09;;;;;;;24.95;7.57;;;;;;;;;;5034654;28;20017;-56
2022/05/22 04:11:36;;;;;;;21.10;7.07;;;;;;;;;;5033548;28;20029;-57
2022/05/22 04:14:03;;;;;;;18.08;6.53;;;;;;;;;;5016327;28;20037;-54
2022/05/22 04:16:30;;;;;;;19.30;6.57;;;;;;;;;;5033635;28;20041;-57
2022/05/22 04:18:57;;;;;;;16.00;6.40;;;;;;;;;;5032397;28;20510;-54
2022/05/22 04:21:24;;;;;;;17.85;5.70;;;;;;;;;;5034596;28;20049;-57
2022/05/22 04:26:36;;;;;;;17.80;6.30;;;;;;;;;;5034292;28;20044;-56
2022/05/22 04:29:04;;;;;;;20.83;6.57;;;;;;;;;;5034155;28;20533;-54
2022/05/22 04:31:30;;;;;;;16.75;6.15;;;;;;;;;;5033518;28;20021;-55
2022/05/22 04:33:57;;;;;;;17.33;6.18;;;;;;;;;;5034131;28;20034;-58
2022/05/22 04:36:24;;;;;;;18.88;5.95;;;;;;;;;;5015930;28;20036;-56
2022/05/22 04:38:51;;;;;;;16.35;6.03;;;;;;;;;;5034272;28;20021;-56
2022/05/22 04:41:18;;;;;;;14.63;5.65;;;;;;;;;;5033409;28;20021;-58
2022/05/22 04:43:45;;;;;;;14.35;5.38;;;;;;;;;;5016446;28;20033;-56
2022/05/22 04:46:12;;;;;;;13.57;5.38;;;;;;;;;;5033973;28;20032;-54
2022/05/22 04:48:39;;;;;;;16.65;5.65;;;;;;;;;;5033858;28;20034;-58
2022/05/22 04:51:07;;;;;;;15.85;6.00;;;;;;;;;;5025982;28;20411;-55
2022/05/22 04:53:33;;;;;;;14.20;5.45;;;;;;;;;;5024850;28;20025;-57
2022/05/22 04:56:01;;;;;;;16.45;5.85;;;;;;;;;;5033797;28;20460;-58
2022/05/22 04:58:28;;;;;;;14.20;5.38;;;;;;;;;;5033211;28;20105;-56
2022/05/22 05:00:55;;;;;;;10.93;5.10;;;;;;;;;;5034044;28;20487;-55
2022/05/22 05:03:22;;;;;;;14.48;5.55;;;;;;;;;;5033117;28;20060;-56
2022/05/22 05:05:57;;;;;;;16.63;5.55;;;;;;;;;;5033497;28;20491;-58
2022/05/22 05:08:25;;;;;;;12.82;4.97;;;;;;;;;;5033071;28;20025;-57
2022/05/22 05:10:52;;;;;;;13.98;4.88;;;;;;;;;;5033436;28;20472;-56
2022/05/22 05:13:20;;;;;;;14.65;5.05;;;;;;;;;;5033100;28;20426;-56
2022/05/22 05:15:47;;;;;;;12.63;4.95;;;;;;;;;;5033027;28;20033;-57
2022/05/22 05:18:14;;;;;;;10.85;4.75;;;;;;;;;;5033082;28;20021;-56
2022/05/22 05:20:43;;;;;;;14.13;5.35;;;;;;;;;;5033600;28;20076;-57
2022/05/22 05:23:10;;;;;;;13.23;4.22;;;;;;;;;;5032615;28;20479;-57
2022/05/22 05:25:37;;;;;;;13.15;4.93;;;;;;;;;;5033427;28;20487;-57
2022/05/22 05:28:04;;;;;;;12.85;4.88;;;;;;;;;;5032879;28;20029;-56
2022/05/22 05:30:31;;;;;;;10.40;4.32;;;;;;;;;;5033108;28;20026;-56
2022/05/22 05:32:58;;;;;;;10.52;5.07;;;;;;;;;;5032021;28;20081;-57
2022/05/22 05:35:25;;;;;;;10.02;4.35;;;;;;;;;;5033230;28;20036;-57
2022/05/22 05:37:52;;;;;;;9.77;3.88;;;;;;;;;;5032716;28;20029;-57
2022/05/22 05:40:19;;;;;;;13.55;4.65;;;;;;;;;;5026791;28;20033;-54
2022/05/22 05:42:48;;;;;;;10.38;4.53;;;;;;;;;;5022089;28;20080;-55
2022/05/22 05:45:15;;;;;;;9.77;4.32;;;;;;;;;;5013692;28;20128;-57
2022/05/22 05:47:45;;;;;;;8.82;3.70;;;;;;;;;;4996053;28;20022;-58
2022/05/22 05:50:12;;;;;;;11.60;4.55;;;;;;;;;;5013654;28;20500;-55
2022/05/22 05:52:39;;;;;;;9.05;3.92;;;;;;;;;;5013797;28;20118;-57
2022/05/22 05:55:07;;;;;;;11.55;4.60;;;;;;;;;;5013641;28;20125;-57
2022/05/22 05:57:34;;;;;;;9.38;4.07;;;;;;;;;;5013679;28;20030;-56
2022/05/22 06:00:01;;;;;;;9.10;3.72;;;;;;;;;;5013522;28;20037;-57
2022/05/22 06:02:28;;;;;;;8.73;3.72;;;;;;;;;;5013643;28;20022;-57
2022/05/22 06:04:55;;;;;;;14.20;4.38;;;;;;;;;;5013586;28;20076;-56
2022/05/22 06:07:22;;;;;;;6.88;3.45;;;;;;;;;;5013549;28;20033;-56
2022/05/22 06:09:49;;;;;;;13.93;4.03;;;;;;;;;;5013501;28;20026;-55
2022/05/22 06:12:16;;;;;;;11.25;3.85;;;;;;;;;;4995743;28;20538;-56
2022/05/22 06:14:42;;;;;;;9.57;4.07;;;;;;;;;;5013263;28;20037;-57
2022/05/22 06:17:09;;;;;;;8.20;3.83;;;;;;;;;;5013448;28;20100;-55
2022/05/22 06:19:57;;;;;;;8.63;3.80;;;;;;;;;;5013338;28;20029;-55
2022/05/22 06:22:25;;;;;;;8.38;3.83;;;;;;;;;;5013164;28;20092;-57
2022/05/22 06:24:53;;;;;;;9.93;4.28;;;;;;;;;;5013203;28;20484;-57
2022/05/22 06:27:20;;;;;;;8.70;4.05;;;;;;;;;;5013252;28;20053;-57
2022/05/22 06:29:47;;;;;;;8.30;3.72;;;;;;;;;;5013059;28;20080;-57
2022/05/22 06:32:15;;;;;;;11.23;3.42;;;;;;;;;;4995345;28;20056;-57
2022/05/22 06:34:42;;;;;;;9.65;4.20;;;;;;;;;;4995353;28;20407;-59
2022/05/22 06:37:11;;;;;;;6.22;2.85;;;;;;;;;;5013027;28;20555;-55
2022/05/22 06:39:51;;;;;;;7.85;2.80;;;;;;;;;;5013089;28;20099;-58
2022/05/22 06:42:25;;;;;;;6.13;3.30;;;;;;;;;;4994312;28;20033;-58
2022/05/22 06:45:03;;;;;;;6.97;2.90;;;;;;;;;;5013074;28;20376;-57
2022/05/22 06:47:31;;;;;;;8.52;3.17;;;;;;;;;;5011914;28;20049;-55
2022/05/22 06:49:59;;;;;;;9.82;3.30;;;;;;;;;;5012179;28;20029;-58
2022/05/22 06:52:26;;;;;;;8.45;3.53;;;;;;;;;;5012361;28;20030;-58
2022/05/22 06:54:53;;;;;;;7.28;3.20;;;;;;;;;;5012205;28;20037;-56
2022/05/22 06:57:21;;;;;;;6.85;3.13;;;;;;;;;;5012080;28;20168;-54
2022/05/22 06:59:49;;;;;;;8.43;3.47;;;;;;;;;;5012203;28;20029;-57
2022/05/22 07:02:16;;;;;;;7.22;3.10;;;;;;;;;;5012243;28;20026;-57
2022/05/22 07:04:43;;;;;;;6.00;2.60;;;;;;;;;;5012623;28;20041;-57
2022/05/22 07:07:10;;;;;;;7.57;2.83;;;;;;;;;;5012191;28;20030;-54
2022/05/22 07:09:38;;;;;;;8.23;3.10;;;;;;;;;;5011585;28;20076;-57
2022/05/22 07:12:09;;;;;;;8.23;2.60;;;;;;;;;;4994740;28;20053;-57
2022/05/22 07:14:37;;;;;;;6.18;3.00;;;;;;;;;;5011661;28;20030;-56
2022/05/22 07:17:05;;;;;;;7.70;2.90;;;;;;;;;;5012537;28;20033;-54
2022/05/22 07:19:37;;;;;;;6.68;2.53;;;;;;;;;;5011583;28;20117;-57
2022/05/22 07:22:06;;;;;;;6.18;2.72;;;;;;;;;;5012233;28;20152;-57
2022/05/22 07:24:33;;;;;;;8.00;2.88;;;;;;;;;;5011568;28;20444;-51
2022/05/22 07:27:00;;;;;;;7.20;2.92;;;;;;;;;;5012558;28;20121;-57
2022/05/22 07:29:27;;;;;;;6.72;2.80;;;;;;;;;;5011500;28;20034;-57
2022/05/22 07:31:56;;;;;;;8.25;3.10;;;;;;;;;;5011863;28;20137;-59
2022/05/22 07:34:27;;;;;;;7.32;2.70;;;;;;;;;;5011718;28;20042;-57
2022/05/22 07:36:55;;;;;;;6.00;2.63;;;;;;;;;;5011407;28;20058;-55
2022/05/22 07:39:22;;;;;;;9.35;2.30;;;;;;;;;;5012686;28;20113;-54
2022/05/22 07:41:49;;;;;;;5.55;2.35;;;;;;;;;;4994527;28;20392;-55
2022/05/22 07:44:16;;;;;;;5.78;2.28;;;;;;;;;;5027758;28;20061;-56
2022/05/22 07:46:43;;;;;;;5.07;2.40;;;;;;;;;;5031515;28;20400;-57
2022/05/22 07:50:16;;;;;;;7.32;2.22;;;;;;;;;;5032057;28;20022;-56
2022/05/22 07:51:57;;;;;;;5.03;2.20;;;;;;;;;;5030424;28;20029;-57
2022/05/22 07:54:24;;;;;;;5.63;2.00;;;;;;;;;;5035581;28;20139;-57
2022/05/22 07:56:51;;;;;;;6.22;2.20;;;;;;;;;;5035287;28;20026;-57
2022/05/22 07:59:18;;;;;;;4.18;2.10;;;;;;;;;;5035068;28;20021;-56
2022/05/22 08:01:45;;;;;;;6.00;2.30;;;;;;;;;;5035313;28;20108;-57
2022/05/22 08:04:12;;;;;;;6.88;2.03;;;;;;;;;;5034709;28;20124;-57
2022/05/22 08:06:39;;;;;;;6.05;2.05;;;;;;;;;;5015110;28;20026;-58
2022/05/22 08:09:06;;;;;;;9.27;2.00;;;;;;;;;;5014406;28;20076;-57
2022/05/22 08:11:33;;;;;;;5.70;2.20;;;;;;;;;;4997457;28;20050;-57
2022/05/22 08:14:00;;;;;;;9.48;1.90;;;;;;;;;;5014510;28;20026;-55
2022/05/22 08:16:27;;;;;;;7.47;2.20;;;;;;;;;;5014736;28;20026;-54
2022/05/22 08:18:54;;;;;;;7.18;2.15;;;;;;;;;;4996835;28;20435;-57
2022/05/22 08:21:22;;;;;;;4.07;2.05;;;;;;;;;;5014519;28;20383;-57
2022/05/22 08:23:49;;;;;;;6.07;1.85;;;;;;;;;;4997189;28;20037;-57
2022/05/22 08:26:16;;;;;;;7.00;1.80;;;;;;;;;;5014708;28;20041;-57
2022/05/22 08:28:44;;;;;;;4.20;1.95;;;;;;;;;;5014865;28;20025;-55
2022/05/22 08:31:11;;;;;;;8.43;1.80;;;;;;;;;;5014159;28;20080;-55
2022/05/22 08:33:38;;;;;;;4.55;1.35;;;;;;;;;;5014780;28;20057;-57
2022/05/22 08:39:21;;;;;;;3.47;1.50;;;;;;;;;;5032618;28;20040;-57
2022/05/22 08:41:49;;;;;;;5.07;1.63;;;;;;;;;;5033254;28;20025;-57
2022/05/22 08:44:16;;;;;;;6.15;1.60;;;;;;;;;;5033934;28;20542;-54
2022/05/22 08:47:03;;;;;;;4.78;1.73;;;;;;;;;;5033715;28;20112;-58
2022/05/22 08:49:30;;;;;;;6.38;1.67;;;;;;;;;;5034279;28;20038;-54
2022/05/22 08:51:59;;;;;;;3.92;1.73;;;;;;;;;;5032919;28;20472;-56
2022/05/22 08:54:29;;;;;;;3.15;1.70;;;;;;;;;;5033895;28;20522;-55
2022/05/22 08:59:44;;;;;;;3.45;1.50;;;;;;;;;;5033786;28;20041;-56
2022/05/22 09:02:23;;;;;;;4.68;1.70;;;;;;;;;;5033149;28;20029;-56
2022/05/22 09:04:53;;;;;;;8.27;1.58;;;;;;;;;;5033213;28;20033;-57
2022/05/22 09:07:25;;;;;;;2.75;1.38;;;;;;;;;;5032933;28;20691;-57
2022/05/22 09:10:03;;;;;;;5.57;1.33;;;;;;;;;;5033885;28;20022;-56
2022/05/22 09:12:48;;;;;;;3.25;1.42;;;;;;;;;;5033494;28;20025;-56
2022/05/22 09:15:30;;;;;;;3.58;1.30;;;;;;;;;;5033246;28;20029;-55
2022/05/22 09:17:57;;;;;;;5.65;1.52;;;;;;;;;;5033351;28;20025;-57
2022/05/22 09:20:44;;;;;;;3.67;1.45;;;;;;;;;;5033285;28;20104;-54
2022/05/22 09:23:16;;;;;;;4.30;1.23;;;;;;;;;;5032634;28;20021;-56
2022/05/22 09:25:53;;;;;;;2.22;1.20;;;;;;;;;;5033490;28;20037;-55
2022/05/22 09:28:46;;;;;;;4.47;1.50;;;;;;;;;;5033355;28;20029;-57
2022/05/22 09:31:19;;;;;;;4.68;1.38;;;;;;;;;;5032925;28;20029;-57
2022/05/22 09:33:52;;;;;;;3.80;1.30;;;;;;;;;;5032509;28;20057;-55
2022/05/22 09:36:33;;;;;;;2.97;1.40;;;;;;;;;;5032365;28;20109;-56
2022/05/22 09:39:08;;;;;;;3.42;1.60;;;;;;;;;;5033548;28;20038;-56
2022/05/22 09:41:50;;;;;;;4.70;1.58;;;;;;;;;;5032369;28;20056;-56
2022/05/22 09:44:20;;;;;;;4.05;1.30;;;;;;;;;;5032978;28;20021;-56
2022/05/22 09:47:10;;;;;;;3.38;1.40;;;;;;;;;;5032108;28;20438;-56
2022/05/22 09:49:50;;;;;;;4.15;1.45;;;;;;;;;;5032486;28;20564;-56
2022/05/22 09:52:23;;;;;;;4.65;1.25;;;;;;;;;;5033074;28;20479;-57
2022/05/22 09:55:08;;;;;;;2.97;1.48;;;;;;;;;;5032137;28;20033;-56
2022/05/22 09:57:47;;;;;;;2.90;1.30;;;;;;;;;;5032939;28;20040;-56
2022/05/22 10:00:17;;;;;;;4.68;1.40;;;;;;;;;;5031956;28;20021;-51
2022/05/22 10:02:52;;;;;;;5.85;1.65;;;;;;;;;;5032464;28;20467;-57
2022/05/22 10:05:27;;;;;;;3.10;1.30;;;;;;;;;;5032748;28;20107;-57
2022/05/22 10:08:09;;;;;;;3.83;1.27;;;;;;;;;;5032030;28;20032;-57
2022/05/22 10:10:39;;;;;;;3.00;1.35;;;;;;;;;;5032743;28;20037;-56
2022/05/22 10:13:09;;;;;;;3.42;1.42;;;;;;;;;;5031740;28;20073;-54
2022/05/22 10:15:45;;;;;;;4.18;1.20;;;;;;;;;;5031769;28;20491;-56
2022/05/22 10:18:19;;;;;;;5.10;1.35;;;;;;;;;;5032296;28;20037;-58
2022/05/22 10:20:57;;;;;;;3.53;1.20;;;;;;;;;;5031689;28;20116;-55
2022/05/22 10:23:39;;;;;;;4.70;1.27;;;;;;;;;;5032484;28;20368;-57
2022/05/22 10:26:05;;;;;;;3.17;1.05;;;;;;;;;;5032116;28;20092;-57
2022/05/22 10:28:44;;;;;;;3.58;1.20;;;;;;;;;;5032086;28;20548;-56
2022/05/22 10:34:33;;;;;;;4.20;1.35;;;;;;;;;;5011657;28;20064;-57
2022/05/22 10:37:01;;;;;;;2.80;1.20;;;;;;;;;;5011886;28;20675;-56
2022/05/22 10:39:28;;;;;;;3.13;1.42;;;;;;;;;;5012193;28;20022;-54
2022/05/22 10:44:57;;;;;;;3.58;1.23;;;;;;;;;;4997504;28;20084;-57
2022/05/22 10:47:28;;;;;;;4.60;1.70;;;;;;;;;;5011751;28;20033;-58
2022/05/22 10:49:55;;;;;;;3.40;1.30;;;;;;;;;;5011730;28;20026;-55
2022/05/22 10:52:35;;;;;;;3.92;1.40;;;;;;;;;;5015733;28;20072;-55
2022/05/22 10:55:02;;;;;;;3.17;1.33;;;;;;;;;;5012702;28;20041;-56
2022/05/22 10:57:30;;;;;;;3.80;1.23;;;;;;;;;;5028174;28;20560;-56
2022/05/22 10:59:58;;;;;;;2.80;0.93;;;;;;;;;;5029902;28;20179;-55
2022/05/22 11:02:27;;;;;;;2.03;0.80;;;;;;;;;;5030580;28;20049;-54
2022/05/22 11:04:55;;;;;;;4.60;1.30;;;;;;;;;;5030455;28;20025;-55
2022/05/22 11:07:33;;;;;;;3.70;1.30;;;;;;;;;;5030296;28;20036;-54
2022/05/22 11:10:08;;;;;;;3.97;1.35;;;;;;;;;;5031171;28;20425;-55
2022/05/22 11:12:35;;;;;;;3.22;1.08;;;;;;;;;;5030247;28;20140;-58
2022/05/22 11:15:07;;;;;;;6.13;1.00;;;;;;;;;;5030408;28;20045;-56
2022/05/22 11:17:34;;;;;;;2.33;1.00;;;;;;;;;;5031871;28;20382;-55
2022/05/22 11:20:09;;;;;;;2.85;1.10;;;;;;;;;;5030817;28;20495;-54
2022/05/22 11:22:38;;;;;;;6.88;1.00;;;;;;;;;;5031230;28;20033;-57
2022/05/22 11:25:05;;;;;;;2.83;0.90;;;;;;;;;;5031512;28;20546;-57
2022/05/22 11:27:50;;;;;;;3.28;0.90;;;;;;;;;;5032717;28;20152;-53
2022/05/22 11:30:43;;;;;;;4.68;1.00;;;;;;;;;;5035122;28;20052;-57
2022/05/22 11:33:10;;;;;;;2.25;1.00;;;;;;;;;;5035524;28;20136;-52
2022/05/22 11:35:37;;;;;;;4.40;1.17;;;;;;;;;;5034684;28;20034;-55
2022/05/22 11:38:04;;;;;;;5.68;1.20;;;;;;;;;;5035086;28;20491;-53
2022/05/22 11:41:03;;;;;;;2.67;0.90;;;;;;;;;;5035107;28;20026;-57
2022/05/22 11:43:31;;;;;;;4.10;1.05;;;;;;;;;;4991773;28;20041;-56
2022/05/22 11:46:04;;;;;;;2.38;1.25;;;;;;;;;;5034538;28;20037;-56
2022/05/22 11:48:41;;;;;;;3.28;1.00;;;;;;;;;;5035364;28;20030;-56
2022/05/22 11:51:22;;;;;;;6.07;1.13;;;;;;;;;;5034583;28;20022;-57
2022/05/22 11:53:51;;;;;;;2.58;1.00;;;;;;;;;;5034974;28;20097;-56
2022/05/22 11:56:24;;;;;;;2.35;0.90;;;;;;;;;;5035166;28;20021;-57
2022/05/22 11:58:54;;;;;;;4.18;1.35;;;;;;;;;;5034360;28;20037;-56
2022/05/22 12:01:31;;;;;;;5.80;1.20;;;;;;;;;;5034541;28;20025;-54
2022/05/22 12:03:58;;;;;;;2.72;1.05;;;;;;;;;;5034431;28;20030;-57
2022/05/22 12:06:33;;;;;;;3.88;1.10;;;;;;;;;;5034634;28;20053;-55
2022/05/22 12:09:03;;;;;;;4.38;1.08;;;;;;;;;;5034198;28;20025;-57
2022/05/22 12:11:36;;;;;;;2.85;0.93;;;;;;;;;;5034933;28;20029;-57
2022/05/22 12:14:05;;;;;;;8.40;1.58;;;;;;;;;;5034088;28;20029;-57
2022/05/22 12:16:55;;;;;;;2.55;1.30;;;;;;;;;;5034402;28;20037;-57
2022/05/22 12:19:28;;;;;;;3.05;1.00;;;;;;;;;;5034018;28;20028;-57
2022/05/22 12:22:06;;;;;;;2.85;0.90;;;;;;;;;;5033536;28;20385;-60
2022/05/22 12:24:39;;;;;;;4.07;0.93;;;;;;;;;;5026305;28;20030;-57
2022/05/22 12:27:13;;;;;;;3.53;1.20;;;;;;;;;;5015195;28;20053;-56
2022/05/22 12:29:48;;;;;;;3.75;0.98;;;;;;;;;;4996862;28;20057;-56
2022/05/22 12:32:22;;;;;;;3.28;1.15;;;;;;;;;;5014671;28;20037;-56
2022/05/22 12:34:50;;;;;;;5.25;1.20;;;;;;;;;;5023290;28;20490;-56
2022/05/22 12:37:25;;;;;;;4.72;0.90;;;;;;;;;;5034485;28;20075;-58
2022/05/22 12:39:58;;;;;;;4.65;1.00;;;;;;;;;;5033506;28;20499;-57
2022/05/22 12:42:30;;;;;;;3.17;1.10;;;;;;;;;;5034223;28;20029;-60
2022/05/22 12:44:58;;;;;;;4.10;1.00;;;;;;;;;;5030147;28;20116;-58
2022/05/22 12:47:34;;;;;;;1.95;0.85;;;;;;;;;;5031554;28;20026;-58
2022/05/22 12:50:01;;;;;;;5.32;1.17;;;;;;;;;;5032507;28;20030;-58
2022/05/22 12:52:30;;;;;;;3.97;1.23;;;;;;;;;;5028260;28;20537;-55
2022/05/22 12:54:57;;;;;;;11.18;1.33;;;;;;;;;;5031629;28;20124;-61
2022/05/22 12:57:25;;;;;;;8.35;1.08;;;;;;;;;;5033487;28;20088;-60
2022/05/22 12:59:53;;;;;;;12.23;1.13;;;;;;;;;;5032373;28;20116;-58
2022/05/22 13:02:28;;;;;;;7.90;1.23;;;;;;;;;;5033520;28;20029;-59
2022/05/22 13:04:57;;;;;;;11.35;1.50;;;;;;;;;;5032483;28;20052;-54
2022/05/22 13:07:30;;;;;;;4.63;1.25;;;;;;;;;;5025662;28;20041;-57
2022/05/22 13:09:57;;;;;;;6.38;1.35;;;;;;;;;;5032305;28;20399;-57
2022/05/22 13:12:30;;;;;;;6.72;1.13;;;;;;;;;;5032250;28;20041;-59
2022/05/22 13:15:00;;;;;;;6.28;1.05;;;;;;;;;;5032849;28;20084;-56
2022/05/22 13:17:37;;;;;;;8.13;1.52;;;;;;;;;;5029989;28;20025;-60
2022/05/22 13:20:06;;;;;;;6.18;1.30;;;;;;;;;;5032880;28;20108;-59
2022/05/22 13:22:35;;;;;;;8.18;1.30;;;;;;;;;;5031975;28;20029;-63
2022/05/22 13:25:03;;;;;;;4.50;1.08;;;;;;;;;;5031088;28;20030;-63
2022/05/22 13:27:30;;;;;;;10.13;1.25;;;;;;;;;;5031241;28;20025;-62
2022/05/22 13:30:09;;;;;;;11.82;1.10;;;;;;;;;;5032881;28;20029;-64
2022/05/22 13:32:42;;;;;;;9.18;1.30;;;;;;;;;;5028835;28;20080;-60
2022/05/22 13:35:14;;;;;;;11.90;1.70;;;;;;;;;;5031399;28;20038;-55
2022/05/22 13:37:44;;;;;;;13.43;1.90;;;;;;;;;;5031832;28;20033;-50
2022/05/22 13:40:14;;;;;;;15.98;2.03;;;;;;;;;;5032071;28;20029;-52
2022/05/22 13:43:10;;;;;;;20.45;2.28;;;;;;;;;;5030756;28;20462;-55
2022/05/22 13:45:40;;;;;;;16.63;1.73;;;;;;;;;;5031545;28;20021;-51
2022/05/22 13:48:09;;;;;;;13.90;2.17;;;;;;;;;;5030390;28;20060;-53
2022/05/22 13:53:50;;;;;;;10.88;1.80;;;;;;;;;;5030882;28;20056;-49
2022/05/22 13:56:18;;;;;;;14.20;1.70;;;;;;;;;;5031568;28;20398;-54
2022/05/22 13:58:47;;;;;;;4.82;1.38;;;;;;;;;;5031123;28;20515;-53
2022/05/22 14:01:17;;;;;;;12.75;1.23;;;;;;;;;;5030323;28;20163;-56
2022/05/22 14:03:47;;;;;;;8.52;1.55;;;;;;;;;;5031332;28;20037;-55
2022/05/22 14:06:16;;;;;;;8.75;2.20;;;;;;;;;;5031972;28;20034;-53
2022/05/22 14:08:47;;;;;;;10.13;1.60;;;;;;;;;;5031222;28;20503;-53
2022/05/22 14:11:17;;;;;;;10.85;1.60;;;;;;;;;;5030823;28;20032;-49
2022/05/22 14:13:55;;;;;;;9.80;2.00;;;;;;;;;;5031200;28;20045;-53
2022/05/22 14:16:28;;;;;;;11.07;1.38;;;;;;;;;;5031890;28;20422;-55
2022/05/22 14:18:59;;;;;;;16.02;2.10;;;;;;;;;;5026845;28;20025;-58
2022/05/22 14:21:26;;;;;;;10.90;1.58;;;;;;;;;;5029895;28;20033;-52
2022/05/22 14:26:39;;;;;;;17.48;2.08;;;;;;;;;;5031205;28;20079;-52
2022/05/22 14:29:08;;;;;;;19.17;1.80;;;;;;;;;;5029281;28;20392;-54
2022/05/22 14:31:43;;;;;;;13.88;1.60;;;;;;;;;;5031792;28;20026;-50
2022/05/22 14:34:10;;;;;;;21.42;2.00;;;;;;;;;;5030661;28;20073;-54
2022/05/22 14:36:37;;;;;;;15.68;1.70;;;;;;;;;;5030946;28;20032;-52
2022/05/22 14:39:14;;;;;;;12.77;1.90;;;;;;;;;;5029762;28;20037;-53
2022/05/22 14:41:41;;;;;;;14.95;1.90;;;;;;;;;;5030896;28;20060;-53
2022/05/22 14:44:09;;;;;;;17.38;2.60;;;;;;;;;;5029482;28;20462;-51
2022/05/22 14:46:45;;;;;;;18.67;2.53;;;;;;;;;;5011585;28;20439;-52
2022/05/22 14:49:14;;;;;;;19.50;2.33;;;;;;;;;;5010528;28;20392;-50
2022/05/22 14:52:01;;;;;;;14.63;2.40;;;;;;;;;;5018596;28;20029;-53
2022/05/22 14:54:30;;;;;;;12.77;2.47;;;;;;;;;;5031351;28;20048;-54
2022/05/22 14:57:20;;;;;;;27.83;3.45;;;;;;;;;;5030961;28;20022;-52
2022/05/22 14:59:55;;;;;;;17.15;2.13;;;;;;;;;;5011189;28;20050;-51
2022/05/22 15:02:32;;;;;;;17.20;2.40;;;;;;;;;;5034050;28;20032;-51
2022/05/22 15:05:06;;;;;;;18.05;2.28;;;;;;;;;;5037797;28;20114;-51
2022/05/22 15:10:49;;;;;;;14.52;2.28;;;;;;;;;;5019036;28;20454;-49
2022/05/22 15:19:54;;;;;;;19.05;2.97;;;;;;;;;;5018419;28;20217;-54
2022/05/22 15:25:28;;;;;;;18.55;2.35;;;;;;;;;;5038225;28;19963;-53